createdAt,value
2018-06-25T00:01:09.931Z,99.90
2018-06-25T00:03:38.796Z,99.90
2018-06-25T00:06:07.262Z,99.90
2018-06-25T00:08:35.524Z,99.90
2018-06-25T00:11:03.841Z,99.90
2018-06-25T00:13:32.039Z,99.90
2018-06-25T00:16:00.860Z,99.90
2018-06-25T00:18:29.524Z,99.90
2018-06-25T00:20:58.638Z,99.90
2018-06-25T00:23:26.917Z,99.90
2018-06-25T00:25:55.218Z,99.90
2018-06-25T00:28:23.470Z,99.90
2018-06-25T00:30:51.709Z,99.90
2018-06-25T00:33:20.263Z,99.90
2018-06-25T00:38:16.802Z,99.90
2018-06-25T00:40:45.056Z,99.90
2018-06-25T00:43:13.268Z,99.90
2018-06-25T00:45:41.579Z,99.90
2018-06-25T00:48:09.867Z,99.90
2018-06-25T00:50:38.155Z,99.90
2018-06-25T00:53:06.497Z,99.90
2018-06-25T00:55:34.698Z,99.90
2018-06-25T00:58:02.974Z,99.90
2018-06-25T01:00:31.281Z,99.90
2018-06-25T01:02:59.902Z,99.90
2018-06-25T01:05:28.135Z,99.90
2018-06-25T01:07:56.458Z,99.90
2018-06-25T01:10:24.701Z,99.90
2018-06-25T01:15:21.327Z,99.90
2018-06-25T01:17:49.576Z,99.90
2018-06-25T01:20:17.920Z,99.90
2018-06-25T01:22:46.195Z,99.90
2018-06-25T01:25:14.426Z,99.90
2018-06-25T01:27:42.720Z,99.90
2018-06-25T01:30:10.982Z,99.90
2018-06-25T01:32:39.474Z,99.90
2018-06-25T01:35:07.965Z,99.90
2018-06-25T01:37:36.506Z,99.90
2018-06-25T01:40:05.105Z,99.90
2018-06-25T01:42:33.420Z,99.90
2018-06-25T01:45:01.710Z,99.90
2018-06-25T01:47:30.157Z,99.90
2018-06-25T01:49:58.516Z,99.90
2018-06-25T01:52:28.126Z,99.90
2018-06-25T01:54:56.378Z,99.90
2018-06-25T01:57:24.551Z,99.90
2018-06-25T01:59:52.915Z,99.90
2018-06-25T02:02:21.166Z,99.90
2018-06-25T02:04:49.392Z,99.90
2018-06-25T02:07:18.103Z,99.90
2018-06-25T02:09:48.080Z,99.90
2018-06-25T02:12:16.702Z,99.90
2018-06-25T02:14:44.960Z,99.90
2018-06-25T02:17:13.198Z,99.90
2018-06-25T02:19:41.512Z,99.90
2018-06-25T02:22:09.765Z,99.90
2018-06-25T02:24:38.178Z,99.90
2018-06-25T02:27:06.463Z,99.90
2018-06-25T02:29:34.679Z,99.90
2018-06-25T02:32:02.906Z,99.90
2018-06-25T02:34:31.089Z,99.90
2018-06-25T02:36:59.504Z,99.90
2018-06-25T02:39:28.278Z,99.90
2018-06-25T02:41:56.933Z,99.90
2018-06-25T02:44:25.223Z,99.90
2018-06-25T02:46:53.445Z,99.90
2018-06-25T02:49:21.761Z,99.90
2018-06-25T02:51:49.965Z,99.90
2018-06-25T02:54:18.238Z,99.90
2018-06-25T02:56:46.546Z,99.90
2018-06-25T02:59:14.798Z,99.90
2018-06-25T03:01:43.554Z,99.90
2018-06-25T03:04:11.935Z,99.90
2018-06-25T03:06:40.228Z,99.90
2018-06-25T03:09:10.032Z,99.90
2018-06-25T03:11:38.543Z,99.90
2018-06-25T03:14:07.103Z,99.90
2018-06-25T03:16:35.732Z,99.90
2018-06-25T03:19:04.366Z,99.90
2018-06-25T03:21:32.705Z,99.90
2018-06-25T03:24:00.988Z,99.90
2018-06-25T03:26:29.213Z,99.90
2018-06-25T03:28:57.569Z,99.90
2018-06-25T03:31:25.845Z,99.90
2018-06-25T03:33:54.439Z,99.90
2018-06-25T03:36:22.857Z,99.90
2018-06-25T03:38:51.248Z,99.90
2018-06-25T03:41:19.733Z,99.90
2018-06-25T03:43:48.006Z,99.90
2018-06-25T03:46:16.299Z,99.90
2018-06-25T03:48:44.595Z,99.90
2018-06-25T03:51:12.787Z,99.90
2018-06-25T03:53:40.963Z,99.90
2018-06-25T03:56:09.250Z,99.90
2018-06-25T03:58:37.625Z,99.90
2018-06-25T04:01:06.258Z,99.90
2018-06-25T04:03:34.502Z,99.90
2018-06-25T04:06:02.903Z,99.90
2018-06-25T04:08:31.202Z,99.90
2018-06-25T04:10:59.403Z,99.90
2018-06-25T04:13:27.818Z,99.90
2018-06-25T04:15:56.447Z,99.90
2018-06-25T04:18:24.721Z,99.90
2018-06-25T04:20:53.222Z,99.90
2018-06-25T04:23:21.567Z,99.90
2018-06-25T04:25:49.852Z,99.90
2018-06-25T04:28:18.466Z,99.90
2018-06-25T04:30:46.760Z,99.90
2018-06-25T04:33:15.029Z,99.90
2018-06-25T04:35:43.776Z,99.90
2018-06-25T04:38:12.094Z,99.90
2018-06-25T04:40:40.459Z,99.90
2018-06-25T04:43:08.806Z,99.90
2018-06-25T04:48:08.581Z,99.90
2018-06-25T04:50:37.126Z,99.90
2018-06-25T04:53:05.529Z,99.90
2018-06-25T04:55:33.839Z,99.90
2018-06-25T04:58:02.311Z,99.90
2018-06-25T05:00:30.508Z,99.90
2018-06-25T05:02:58.753Z,99.90
2018-06-25T05:05:27.070Z,99.90
2018-06-25T05:07:55.546Z,99.90
2018-06-25T05:10:25.594Z,99.90
2018-06-25T05:12:53.936Z,99.90
2018-06-25T05:15:22.485Z,99.90
2018-06-25T05:17:51.079Z,99.90
2018-06-25T05:20:19.516Z,99.90
2018-06-25T05:22:47.890Z,99.90
2018-06-25T05:25:16.300Z,99.90
2018-06-25T05:27:44.727Z,99.90
2018-06-25T05:30:13.030Z,99.90
2018-06-25T05:32:41.686Z,99.90
2018-06-25T05:35:09.920Z,99.90
2018-06-25T05:37:39.520Z,99.90
2018-06-25T05:40:08.000Z,99.90
2018-06-25T05:42:36.284Z,99.90
2018-06-25T05:45:05.014Z,99.90
2018-06-25T05:47:33.244Z,99.90
2018-06-25T05:50:01.557Z,99.90
2018-06-25T05:52:29.953Z,99.90
2018-06-25T05:54:59.020Z,99.90
2018-06-25T05:57:27.454Z,99.90
2018-06-25T05:59:55.753Z,99.90
2018-06-25T06:02:24.369Z,99.90
2018-06-25T06:04:52.966Z,99.90
2018-06-25T06:07:22.127Z,99.90
2018-06-25T06:09:50.533Z,99.90
2018-06-25T06:12:19.094Z,99.90
2018-06-25T06:14:47.399Z,99.90
2018-06-25T06:17:15.768Z,99.90
2018-06-25T06:19:44.162Z,99.90
2018-06-25T06:22:12.924Z,99.90
2018-06-25T06:24:41.438Z,99.90
2018-06-25T06:27:11.290Z,99.90
2018-06-25T06:29:39.656Z,99.90
2018-06-25T06:32:07.911Z,99.90
2018-06-25T06:34:37.173Z,99.90
2018-06-25T06:37:05.422Z,99.90
2018-06-25T06:39:33.771Z,99.90
2018-06-25T06:42:01.979Z,99.90
2018-06-25T06:46:58.993Z,99.90
2018-06-25T06:49:28.327Z,99.90
2018-06-25T06:51:57.337Z,99.90
2018-06-25T06:54:26.355Z,99.90
2018-06-25T06:56:54.889Z,99.90
2018-06-25T06:59:23.291Z,99.90
2018-06-25T07:01:51.631Z,99.90
2018-06-25T07:04:20.425Z,99.90
2018-06-25T07:06:48.791Z,99.90
2018-06-25T07:09:17.160Z,99.90
2018-06-25T07:11:46.357Z,99.90
2018-06-25T07:14:14.638Z,99.90
2018-06-25T07:16:44.234Z,99.90
2018-06-25T07:19:12.510Z,99.90
2018-06-25T07:21:41.189Z,99.90
2018-06-25T07:24:09.666Z,99.90
2018-06-25T07:26:38.027Z,99.90
2018-06-25T07:29:06.533Z,99.90
2018-06-25T07:31:35.016Z,99.90
2018-06-25T07:34:03.298Z,99.90
2018-06-25T07:36:39.558Z,99.90
2018-06-25T07:39:09.288Z,99.90
2018-06-25T07:41:37.617Z,99.90
2018-06-25T07:44:06.041Z,99.90
2018-06-25T07:46:34.506Z,99.90
2018-06-25T07:49:03.115Z,99.90
2018-06-25T07:51:31.678Z,99.90
2018-06-25T07:53:59.858Z,99.90
2018-06-25T07:56:28.518Z,99.90
2018-06-25T07:58:57.264Z,99.90
2018-06-25T08:01:25.653Z,99.90
2018-06-25T08:03:53.936Z,99.90
2018-06-25T08:06:22.309Z,99.90
2018-06-25T08:08:51.548Z,99.90
2018-06-25T08:11:20.842Z,99.90
2018-06-25T08:13:49.733Z,99.90
2018-06-25T08:16:18.899Z,99.90
2018-06-25T08:18:47.250Z,99.90
2018-06-25T08:21:16.536Z,99.90
2018-06-25T08:23:44.905Z,99.90
2018-06-25T08:26:13.196Z,99.90
2018-06-25T08:28:42.525Z,99.90
2018-06-25T08:31:10.846Z,99.90
2018-06-25T08:33:39.404Z,99.90
2018-06-25T08:36:07.878Z,99.90
2018-06-25T08:38:36.713Z,99.90
2018-06-25T08:41:05.148Z,99.90
2018-06-25T08:43:33.382Z,99.90
2018-06-25T08:46:01.989Z,99.90
2018-06-25T08:48:30.334Z,99.90
2018-06-25T08:50:58.617Z,97.10
2018-06-25T08:53:27.197Z,93.50
2018-06-25T08:55:56.380Z,93.50
2018-06-25T08:58:25.557Z,91.30
2018-06-25T09:00:54.008Z,90.70
2018-06-25T09:03:22.441Z,85.80
2018-06-25T09:05:51.445Z,80.60
2018-06-25T09:08:19.657Z,80.20
2018-06-25T09:10:48.341Z,74.80
2018-06-25T09:13:17.427Z,70.40
2018-06-25T09:15:45.836Z,63.60
2018-06-25T09:18:13.987Z,58.70
2018-06-25T09:20:42.710Z,58.50
2018-06-25T09:25:39.082Z,61.70
2018-06-25T09:28:07.437Z,61.20
2018-06-25T09:30:35.725Z,63.50
2018-06-25T09:33:04.041Z,58.60
2018-06-25T09:35:32.613Z,57.10
2018-06-25T09:38:01.701Z,56.50
2018-06-25T09:40:29.995Z,57.00
2018-06-25T09:42:58.276Z,59.20
2018-06-25T09:45:26.619Z,60.70
2018-06-25T09:47:55.241Z,62.20
2018-06-25T09:50:23.651Z,65.20
2018-06-25T09:52:51.959Z,65.50
2018-06-25T09:55:20.236Z,67.20
2018-06-25T09:57:48.515Z,63.10
2018-06-25T10:00:21.354Z,60.00
2018-06-25T10:02:50.200Z,58.10
2018-06-25T10:05:18.541Z,55.20
2018-06-25T10:07:47.001Z,54.90
2018-06-25T10:10:15.324Z,55.90
2018-06-25T10:12:43.916Z,56.40
2018-06-25T10:15:12.157Z,55.90
2018-06-25T10:17:40.798Z,56.60
2018-06-25T10:20:08.962Z,58.30
2018-06-25T10:22:39.312Z,58.00
2018-06-25T10:25:07.855Z,60.40
2018-06-25T10:27:36.238Z,63.30
2018-06-25T10:30:04.767Z,59.60
2018-06-25T10:32:33.269Z,59.00
2018-06-25T10:35:01.672Z,57.60
2018-06-25T10:39:58.196Z,57.30
2018-06-25T10:42:26.938Z,58.30
2018-06-25T10:44:55.291Z,58.40
2018-06-25T10:47:23.580Z,58.90
2018-06-25T10:49:51.918Z,61.40
2018-06-25T10:52:20.147Z,62.90
2018-06-25T10:54:48.445Z,65.70
2018-06-25T10:57:17.174Z,68.00
2018-06-25T10:59:45.713Z,69.10
2018-06-25T11:02:13.880Z,72.20
2018-06-25T11:04:42.109Z,70.00
2018-06-25T11:07:10.824Z,78.10
2018-06-25T11:09:39.267Z,76.20
2018-06-25T11:12:07.543Z,79.10
2018-06-25T11:14:35.890Z,72.80
2018-06-25T11:17:04.225Z,72.50
2018-06-25T11:19:32.892Z,63.80
2018-06-25T11:22:01.539Z,65.50
2018-06-25T11:24:29.864Z,65.70
2018-06-25T11:26:58.354Z,71.30
2018-06-25T11:29:26.622Z,69.10
2018-06-25T11:31:54.948Z,69.10
2018-06-25T11:34:23.262Z,69.60
2018-06-25T11:36:51.487Z,67.40
2018-06-25T11:39:19.738Z,65.20
2018-06-25T11:41:48.096Z,68.70
2018-06-25T11:44:16.532Z,75.80
2018-06-25T11:46:44.914Z,70.00
2018-06-25T11:49:13.386Z,66.30
2018-06-25T11:51:41.900Z,68.10
2018-06-25T11:54:10.399Z,72.40
2018-06-25T11:56:38.811Z,68.60
2018-06-25T11:59:07.099Z,67.70
2018-06-25T12:01:35.462Z,65.60
2018-06-25T12:04:03.857Z,66.50
2018-06-25T12:06:32.064Z,60.50
2018-06-25T12:09:00.308Z,60.90
2018-06-25T12:11:28.617Z,63.50
2018-06-25T12:13:56.912Z,63.10
2018-06-25T12:16:25.264Z,63.70
2018-06-25T12:18:53.738Z,62.40
2018-06-25T12:21:22.081Z,59.40
2018-06-25T12:23:50.600Z,58.20
2018-06-25T12:26:19.109Z,59.20
2018-06-25T12:28:47.871Z,57.20
2018-06-25T12:31:17.321Z,56.00
2018-06-25T12:33:45.616Z,55.70
2018-06-25T12:36:14.364Z,55.90
2018-06-25T12:38:42.836Z,57.30
2018-06-25T12:41:11.081Z,56.60
2018-06-25T12:43:39.320Z,59.20
2018-06-25T12:46:07.564Z,57.60
2018-06-25T12:48:36.303Z,56.40
2018-06-25T12:51:04.656Z,55.50
2018-06-25T12:53:32.904Z,55.30
2018-06-25T12:56:01.175Z,56.20
2018-06-25T12:58:29.413Z,53.70
2018-06-25T13:00:57.805Z,56.40
2018-06-25T13:03:27.217Z,52.80
2018-06-25T13:05:55.645Z,53.00
2018-06-25T13:08:24.029Z,51.80
2018-06-25T13:10:52.355Z,51.30
2018-06-25T13:13:20.624Z,52.00
2018-06-25T13:15:48.871Z,51.20
2018-06-25T13:18:17.175Z,52.50
2018-06-25T13:20:45.750Z,52.20
2018-06-25T13:23:14.021Z,52.00
2018-06-25T13:25:42.800Z,51.30
2018-06-25T13:28:11.289Z,50.40
2018-06-25T13:30:39.632Z,50.80
2018-06-25T13:33:08.965Z,50.00
2018-06-25T13:35:37.802Z,50.50
2018-06-25T13:38:06.012Z,48.50
2018-06-25T13:40:34.579Z,49.80
2018-06-25T13:43:02.895Z,51.00
2018-06-25T13:45:31.200Z,49.20
2018-06-25T13:48:00.365Z,49.70
2018-06-25T13:50:29.156Z,49.50
2018-06-25T13:52:57.524Z,49.40
2018-06-25T13:55:26.107Z,48.90
2018-06-25T13:57:54.548Z,49.00
2018-06-25T14:00:22.886Z,49.10
2018-06-25T14:02:51.234Z,49.70
2018-06-25T14:05:19.518Z,49.50
2018-06-25T14:07:48.063Z,48.90
2018-06-25T14:10:17.156Z,49.30
2018-06-25T14:12:45.659Z,48.40
2018-06-25T14:15:14.136Z,48.50
2018-06-25T14:17:42.771Z,48.40
2018-06-25T14:20:12.667Z,49.80
2018-06-25T14:22:40.921Z,48.90
2018-06-25T14:25:09.897Z,49.40
2018-06-25T14:27:43.517Z,49.20
2018-06-25T14:30:17.231Z,50.60
2018-06-25T14:32:54.810Z,51.40
2018-06-25T14:35:23.106Z,52.10
2018-06-25T14:37:51.837Z,53.60
2018-06-25T14:40:20.204Z,52.20
2018-06-25T14:42:48.596Z,52.10
2018-06-25T14:45:17.386Z,51.70
2018-06-25T14:47:45.708Z,51.30
2018-06-25T14:50:14.579Z,52.90
2018-06-25T14:52:43.127Z,55.50
2018-06-25T14:55:11.364Z,55.10
2018-06-25T14:57:39.654Z,57.00
2018-06-25T15:00:08.543Z,58.60
2018-06-25T15:02:37.194Z,62.20
2018-06-25T15:05:05.886Z,61.90
2018-06-25T15:07:34.350Z,64.00
2018-06-25T15:10:02.724Z,65.30
2018-06-25T15:12:30.935Z,60.50
2018-06-25T15:14:59.589Z,58.20
2018-06-25T15:17:28.507Z,57.00
2018-06-25T15:19:58.533Z,59.10
2018-06-25T15:22:26.874Z,63.80
2018-06-25T15:24:55.286Z,70.00
2018-06-25T15:27:23.626Z,73.10
2018-06-25T15:29:51.948Z,79.40
2018-06-25T15:32:20.741Z,79.60
2018-06-25T15:34:49.134Z,80.00
2018-06-25T15:37:17.493Z,76.40
2018-06-25T15:39:46.098Z,74.00
2018-06-25T15:42:14.575Z,73.60
2018-06-25T15:44:42.956Z,71.80
2018-06-25T15:47:11.318Z,73.20
2018-06-25T15:49:39.667Z,72.90
2018-06-25T15:52:08.087Z,71.50
2018-06-25T15:54:37.044Z,77.50
2018-06-25T15:57:05.254Z,76.30
2018-06-25T15:59:33.615Z,74.90
2018-06-25T16:02:02.384Z,73.60
2018-06-25T16:04:31.777Z,74.00
2018-06-25T16:07:00.476Z,74.50
2018-06-25T16:09:30.031Z,77.90
2018-06-25T16:11:58.322Z,78.50
2018-06-25T16:14:27.247Z,77.10
2018-06-25T16:16:56.058Z,77.90
2018-06-25T16:19:24.762Z,80.70
2018-06-25T16:21:53.311Z,79.60
2018-06-25T16:24:22.000Z,82.40
2018-06-25T16:26:50.589Z,83.00
2018-06-25T16:29:19.064Z,84.50
2018-06-25T16:31:47.551Z,84.50
2018-06-25T16:34:15.831Z,83.30
2018-06-25T16:36:44.498Z,84.30
2018-06-25T16:39:14.094Z,86.30
2018-06-25T16:41:42.683Z,88.60
2018-06-25T16:44:11.454Z,89.40
2018-06-25T16:46:40.027Z,86.70
2018-06-25T16:49:08.711Z,90.60
2018-06-25T16:51:37.307Z,91.50
2018-06-25T16:54:06.753Z,93.50
2018-06-25T16:56:35.257Z,92.60
2018-06-25T16:59:03.647Z,92.80
2018-06-25T17:01:34.140Z,93.00
2018-06-25T17:04:02.757Z,93.60
2018-06-25T17:06:31.124Z,93.30
2018-06-25T17:08:59.943Z,94.00
2018-06-25T17:11:28.885Z,94.90
2018-06-25T17:13:58.663Z,95.50
2018-06-25T17:16:27.131Z,95.70
2018-06-25T17:18:57.614Z,92.70
2018-06-25T17:21:27.126Z,95.00
2018-06-25T17:23:55.646Z,95.90
2018-06-25T17:26:24.008Z,96.60
2018-06-25T17:28:52.434Z,97.70
2018-06-25T17:31:20.778Z,98.50
2018-06-25T17:33:49.013Z,97.10
2018-06-25T17:36:17.379Z,97.40
2018-06-25T17:41:14.069Z,96.20
2018-06-25T17:43:42.313Z,97.90
2018-06-25T17:46:10.651Z,98.20
2018-06-25T17:48:39.092Z,99.90
2018-06-25T17:51:07.433Z,99.90
2018-06-25T17:53:35.653Z,99.90
2018-06-25T17:56:03.911Z,99.90
2018-06-25T17:58:32.849Z,99.90
2018-06-25T18:01:01.579Z,99.90
2018-06-25T18:03:29.919Z,99.90
2018-06-25T18:05:58.243Z,99.90
2018-06-25T18:08:28.184Z,99.90
2018-06-25T18:10:56.661Z,99.90
2018-06-25T18:13:25.727Z,99.90
2018-06-25T18:15:54.071Z,99.90
2018-06-25T18:18:22.372Z,99.90
2018-06-25T18:20:50.625Z,99.90
2018-06-25T18:23:18.988Z,99.90
2018-06-25T18:25:47.357Z,99.90
2018-06-25T18:28:15.653Z,99.90
2018-06-25T18:30:44.498Z,99.90
2018-06-25T18:33:12.948Z,99.90
2018-06-25T18:35:44.981Z,99.90
2018-06-25T18:38:13.730Z,99.90
2018-06-25T18:40:42.052Z,99.90
2018-06-25T18:43:10.624Z,99.90
2018-06-25T18:45:39.037Z,99.90
2018-06-25T18:48:08.402Z,99.90
2018-06-25T18:50:36.859Z,99.90
2018-06-25T18:53:05.461Z,99.90
2018-06-25T18:55:33.694Z,99.90
2018-06-25T18:58:02.167Z,99.90
2018-06-25T19:00:30.947Z,99.90
2018-06-25T19:02:59.478Z,99.90
2018-06-25T19:05:28.155Z,99.90
2018-06-25T19:07:56.948Z,99.90
2018-06-25T19:10:25.397Z,99.90
2018-06-25T19:12:54.023Z,99.90
2018-06-25T19:15:22.285Z,99.90
2018-06-25T19:17:50.604Z,99.90
2018-06-25T19:20:19.041Z,99.90
2018-06-25T19:22:47.388Z,99.90
2018-06-25T19:25:15.745Z,99.90
2018-06-25T19:27:44.285Z,99.90
2018-06-25T19:30:12.663Z,99.90
2018-06-25T19:32:41.488Z,99.90
2018-06-25T19:35:10.591Z,99.90
2018-06-25T19:37:42.291Z,99.90
2018-06-25T19:40:14.978Z,99.90
2018-06-25T19:42:43.440Z,99.90
2018-06-25T19:45:11.812Z,99.90
2018-06-25T19:47:41.599Z,99.90
2018-06-25T19:50:10.257Z,99.90
2018-06-25T19:52:39.191Z,99.90
2018-06-25T19:55:09.733Z,99.90
2018-06-25T19:57:38.436Z,99.90
2018-06-25T20:00:07.042Z,99.90
2018-06-25T20:02:36.155Z,99.90
2018-06-25T20:05:04.531Z,99.90
2018-06-25T20:07:33.782Z,99.90
2018-06-25T20:10:02.193Z,99.90
2018-06-25T20:12:31.135Z,99.90
2018-06-25T20:14:59.455Z,99.90
2018-06-25T20:17:28.147Z,99.90
2018-06-25T20:19:56.538Z,99.90
2018-06-25T20:22:24.935Z,99.90
2018-06-25T20:24:53.285Z,99.90
2018-06-25T20:27:21.645Z,99.90
2018-06-25T20:29:50.009Z,99.90
2018-06-25T20:32:18.673Z,99.90
2018-06-25T20:34:47.943Z,99.90
2018-06-25T20:37:19.697Z,99.90
2018-06-25T20:39:48.050Z,99.90
2018-06-25T20:42:16.423Z,99.90
2018-06-25T20:44:45.047Z,99.90
2018-06-25T20:47:14.232Z,99.90
2018-06-25T20:49:46.204Z,99.90
2018-06-25T20:52:14.536Z,99.90
2018-06-25T20:54:43.664Z,99.90
2018-06-25T20:57:12.130Z,99.90
2018-06-25T20:59:41.396Z,99.90
2018-06-25T21:02:10.234Z,99.90
2018-06-25T21:04:38.763Z,99.90
2018-06-25T21:07:07.010Z,99.90
2018-06-25T21:09:36.818Z,99.90
2018-06-25T21:12:05.928Z,99.90
2018-06-25T21:14:34.897Z,99.90
2018-06-25T21:17:03.384Z,99.90
2018-06-25T21:19:32.044Z,99.90
2018-06-25T21:22:00.346Z,99.90
2018-06-25T21:24:29.048Z,99.90
2018-06-25T21:26:57.714Z,99.90
2018-06-25T21:29:26.178Z,99.90
2018-06-25T21:31:54.484Z,99.90
2018-06-25T21:34:23.954Z,99.90
2018-06-25T21:36:52.250Z,99.90
2018-06-25T21:39:21.000Z,99.90
2018-06-25T21:41:49.578Z,99.90
2018-06-25T21:44:18.349Z,99.90
2018-06-25T21:46:46.819Z,99.90
2018-06-25T21:49:15.110Z,99.90
2018-06-25T21:51:43.348Z,99.90
2018-06-25T21:54:11.604Z,99.90
2018-06-25T21:56:39.991Z,99.90
2018-06-25T21:59:08.182Z,99.90
2018-06-25T22:01:37.289Z,99.90
2018-06-25T22:04:05.609Z,99.90
2018-06-25T22:06:33.831Z,99.90
2018-06-25T22:09:02.128Z,99.90
2018-06-25T22:11:30.549Z,99.90
2018-06-25T22:13:58.969Z,99.90
2018-06-25T22:16:27.215Z,99.90
2018-06-25T22:18:55.739Z,99.90
2018-06-25T22:21:24.138Z,99.90
2018-06-25T22:23:52.355Z,99.90
2018-06-25T22:26:20.585Z,99.90
2018-06-25T22:28:48.758Z,99.90
2018-06-25T22:31:17.274Z,99.90
2018-06-25T22:33:45.529Z,99.90
2018-06-25T22:36:14.083Z,99.90
2018-06-25T22:38:42.361Z,99.90
2018-06-25T22:41:10.903Z,99.90
2018-06-25T22:43:39.653Z,99.90
2018-06-25T22:46:08.864Z,99.90
2018-06-25T22:48:37.935Z,99.90
2018-06-25T22:51:06.574Z,99.90
2018-06-25T22:53:34.883Z,99.90
2018-06-25T22:56:03.156Z,99.90
2018-06-25T22:58:31.379Z,99.90
2018-06-25T23:00:59.614Z,99.90
2018-06-25T23:03:28.531Z,99.90
2018-06-25T23:05:56.943Z,99.90
2018-06-25T23:08:25.451Z,99.90
2018-06-25T23:10:53.702Z,99.90
2018-06-25T23:13:21.982Z,99.90
2018-06-25T23:15:50.228Z,99.90
2018-06-25T23:18:18.471Z,99.90
2018-06-25T23:20:46.769Z,99.90
2018-06-25T23:23:15.291Z,99.90
2018-06-25T23:25:43.891Z,99.90
2018-06-25T23:28:12.548Z,99.90
2018-06-25T23:30:40.759Z,99.90
2018-06-25T23:33:09.664Z,99.90
2018-06-25T23:35:38.023Z,99.90
2018-06-25T23:38:06.312Z,99.90
2018-06-25T23:40:34.912Z,99.90
2018-06-25T23:43:03.163Z,99.90
2018-06-25T23:45:31.329Z,99.90
2018-06-25T23:47:59.714Z,99.90
2018-06-25T23:50:28.155Z,99.90
2018-06-25T23:52:56.967Z,99.90
2018-06-25T23:57:53.384Z,99.90
